createdAt,value
2018-09-30T00:01:26.184Z,4.57
2018-09-30T00:03:55.832Z,6.10
2018-09-30T00:06:25.483Z,6.60
2018-09-30T00:08:55.157Z,5.07
2018-09-30T00:11:24.861Z,5.97
2018-09-30T00:13:54.611Z,5.70
2018-09-30T00:16:24.248Z,5.73
2018-09-30T00:18:53.908Z,5.40
2018-09-30T00:21:23.583Z,4.70
2018-09-30T00:23:58.244Z,5.33
2018-09-30T00:26:33.142Z,4.90
2018-09-30T00:29:02.856Z,5.13
2018-09-30T00:31:32.522Z,5.23
2018-09-30T00:34:07.296Z,4.80
2018-09-30T00:36:36.910Z,4.50
2018-09-30T00:39:07.605Z,4.97
2018-09-30T00:41:37.275Z,4.90
2018-09-30T00:44:07.164Z,4.90
2018-09-30T00:46:36.772Z,4.00
2018-09-30T00:49:06.934Z,4.57
2018-09-30T00:51:36.748Z,5.03
2018-09-30T00:54:06.396Z,5.37
2018-09-30T00:56:36.058Z,5.23
2018-09-30T00:59:05.678Z,5.07
2018-09-30T01:01:35.304Z,5.13
2018-09-30T01:04:05.096Z,5.10
2018-09-30T01:06:34.756Z,4.20
2018-09-30T01:09:06.988Z,4.10
2018-09-30T01:11:36.724Z,4.37
2018-09-30T01:14:06.620Z,4.73
2018-09-30T01:16:36.499Z,4.20
2018-09-30T01:19:06.436Z,4.83
2018-09-30T01:21:36.353Z,4.60
2018-09-30T01:24:06.287Z,4.20
2018-09-30T01:26:35.956Z,4.53
2018-09-30T01:29:05.655Z,4.97
2018-09-30T01:31:35.324Z,4.87
2018-09-30T01:34:05.004Z,4.03
2018-09-30T01:36:34.664Z,5.57
2018-09-30T01:39:05.347Z,4.80
2018-09-30T01:41:41.636Z,5.10
2018-09-30T01:44:11.240Z,4.33
2018-09-30T01:46:40.944Z,5.60
2018-09-30T01:49:10.579Z,4.50
2018-09-30T01:51:40.327Z,5.50
2018-09-30T01:54:09.967Z,4.30
2018-09-30T01:56:39.585Z,4.43
2018-09-30T01:59:09.318Z,4.80
2018-09-30T02:01:38.956Z,4.93
2018-09-30T02:04:08.670Z,5.30
2018-09-30T02:06:38.296Z,5.70
2018-09-30T02:09:07.928Z,4.30
2018-09-30T02:11:37.624Z,4.70
2018-09-30T02:14:07.560Z,4.40
2018-09-30T02:16:37.226Z,5.50
2018-09-30T02:19:07.104Z,4.40
2018-09-30T02:21:36.750Z,4.33
2018-09-30T02:24:06.380Z,4.40
2018-09-30T02:26:36.076Z,5.40
2018-09-30T02:29:05.716Z,6.57
2018-09-30T02:31:35.375Z,4.97
2018-09-30T02:34:05.020Z,5.20
2018-09-30T02:36:34.639Z,5.90
2018-09-30T02:39:05.009Z,4.00
2018-09-30T02:41:34.646Z,4.60
2018-09-30T02:44:04.313Z,5.27
2018-09-30T02:46:34.011Z,4.50
2018-09-30T02:49:03.659Z,4.93
2018-09-30T02:51:33.486Z,5.50
2018-09-30T02:54:03.088Z,5.60
2018-09-30T02:56:32.724Z,5.60
2018-09-30T02:59:02.324Z,6.77
2018-09-30T03:01:32.087Z,5.73
2018-09-30T03:04:01.730Z,5.43
2018-09-30T03:06:36.505Z,5.50
2018-09-30T03:09:15.662Z,5.40
2018-09-30T03:11:45.312Z,7.60
2018-09-30T03:14:16.045Z,5.73
2018-09-30T03:16:46.400Z,6.30
2018-09-30T03:19:16.460Z,5.60
2018-09-30T03:21:46.161Z,6.10
2018-09-30T03:24:15.751Z,5.90
2018-09-30T03:26:45.372Z,5.60
2018-09-30T03:29:15.066Z,5.80
2018-09-30T03:31:44.943Z,5.17
2018-09-30T03:34:14.550Z,5.60
2018-09-30T03:36:44.185Z,5.50
2018-09-30T03:39:13.918Z,5.30
2018-09-30T03:41:43.558Z,6.33
2018-09-30T03:44:13.217Z,6.03
2018-09-30T03:46:42.811Z,5.57
2018-09-30T03:49:12.448Z,6.80
2018-09-30T03:51:42.107Z,6.40
2018-09-30T03:54:11.736Z,5.80
2018-09-30T03:56:41.493Z,5.43
2018-09-30T03:59:11.036Z,6.13
2018-09-30T04:01:40.652Z,5.67
2018-09-30T04:04:10.329Z,6.20
2018-09-30T04:06:40.014Z,5.27
2018-09-30T04:09:10.563Z,7.07
2018-09-30T04:11:40.212Z,6.00
2018-09-30T04:14:09.902Z,6.77
2018-09-30T04:16:39.542Z,5.97
2018-09-30T04:19:09.177Z,7.20
2018-09-30T04:21:38.859Z,6.17
2018-09-30T04:24:10.516Z,7.33
2018-09-30T04:26:41.175Z,6.27
2018-09-30T04:29:10.864Z,6.40
2018-09-30T04:31:40.493Z,6.40
2018-09-30T04:34:10.179Z,5.53
2018-09-30T04:36:39.840Z,5.93
2018-09-30T04:39:10.226Z,5.77
2018-09-30T04:41:40.025Z,4.90
2018-09-30T04:44:09.866Z,5.00
2018-09-30T04:46:39.512Z,5.43
2018-09-30T04:49:09.144Z,6.37
2018-09-30T04:51:38.758Z,5.80
2018-09-30T04:54:08.424Z,5.93
2018-09-30T04:56:38.039Z,6.90
2018-09-30T04:59:07.787Z,5.83
2018-09-30T05:01:37.386Z,6.33
2018-09-30T05:04:07.099Z,6.57
2018-09-30T05:06:36.745Z,5.87
2018-09-30T05:09:08.465Z,6.13
2018-09-30T05:11:38.117Z,5.93
2018-09-30T05:14:07.905Z,5.90
2018-09-30T05:16:37.702Z,6.57
2018-09-30T05:19:07.344Z,5.83
2018-09-30T05:21:36.983Z,6.07
2018-09-30T05:24:06.804Z,6.10
2018-09-30T05:26:36.452Z,5.40
2018-09-30T05:29:06.605Z,5.47
2018-09-30T05:31:36.205Z,5.40
2018-09-30T05:34:05.867Z,5.40
2018-09-30T05:36:35.508Z,5.20
2018-09-30T05:39:07.775Z,4.90
2018-09-30T05:41:37.798Z,5.10
2018-09-30T05:44:08.547Z,4.67
2018-09-30T05:46:38.463Z,4.93
2018-09-30T05:49:08.728Z,4.70
2018-09-30T05:51:38.300Z,4.80
2018-09-30T05:54:07.911Z,4.37
2018-09-30T05:56:37.589Z,4.47
2018-09-30T05:59:07.231Z,4.50
2018-09-30T06:01:36.867Z,4.63
2018-09-30T06:04:06.720Z,4.73
2018-09-30T06:06:36.308Z,4.33
2018-09-30T06:09:11.610Z,4.70
2018-09-30T06:11:41.429Z,4.73
2018-09-30T06:14:11.255Z,4.70
2018-09-30T06:16:41.032Z,4.43
2018-09-30T06:19:10.727Z,4.03
2018-09-30T06:21:41.088Z,4.20
2018-09-30T06:24:11.920Z,4.50
2018-09-30T06:26:41.736Z,4.30
2018-09-30T06:29:11.484Z,4.33
2018-09-30T06:31:41.219Z,4.40
2018-09-30T06:34:10.871Z,3.80
2018-09-30T06:36:40.524Z,4.47
2018-09-30T06:39:11.116Z,4.10
2018-09-30T06:41:40.872Z,4.67
2018-09-30T06:44:10.480Z,3.67
2018-09-30T06:46:40.211Z,3.60
2018-09-30T06:49:09.867Z,3.47
2018-09-30T06:51:39.499Z,4.23
2018-09-30T06:54:09.128Z,3.63
2018-09-30T06:56:38.827Z,3.77
2018-09-30T06:59:08.687Z,3.70
2018-09-30T07:01:38.402Z,4.20
2018-09-30T07:04:08.040Z,3.50
2018-09-30T07:06:37.699Z,3.60
2018-09-30T07:09:08.920Z,2.77
2018-09-30T07:11:38.547Z,3.43
2018-09-30T07:14:08.238Z,4.07
2018-09-30T07:16:38.021Z,3.57
2018-09-30T07:19:07.704Z,4.30
2018-09-30T07:21:37.370Z,3.63
2018-09-30T07:24:07.056Z,3.60
2018-09-30T07:26:36.708Z,4.60
2018-09-30T07:29:06.375Z,3.43
2018-09-30T07:31:36.132Z,4.10
2018-09-30T07:34:05.804Z,3.53
2018-09-30T07:36:35.431Z,3.50
2018-09-30T07:39:07.436Z,3.87
2018-09-30T07:41:37.081Z,4.10
2018-09-30T07:44:07.023Z,3.10
2018-09-30T07:46:37.120Z,3.23
2018-09-30T07:49:06.739Z,4.13
2018-09-30T07:51:36.379Z,3.77
2018-09-30T07:54:06.141Z,4.00
2018-09-30T07:56:35.936Z,3.67
2018-09-30T07:59:05.598Z,3.73
2018-09-30T08:01:35.318Z,3.30
2018-09-30T08:04:05.064Z,3.80
2018-09-30T08:06:34.759Z,3.53
2018-09-30T08:09:06.163Z,3.53
2018-09-30T08:11:35.968Z,4.10
2018-09-30T08:14:05.975Z,3.30
2018-09-30T08:16:35.641Z,2.93
2018-09-30T08:19:05.292Z,3.90
2018-09-30T08:21:34.981Z,3.30
2018-09-30T08:24:04.694Z,4.00
2018-09-30T08:26:34.302Z,3.20
2018-09-30T08:29:04.036Z,3.83
2018-09-30T08:31:33.709Z,4.40
2018-09-30T08:34:03.356Z,3.07
2018-09-30T08:36:32.991Z,3.20
2018-09-30T08:39:02.668Z,3.00
2018-09-30T08:41:32.397Z,3.03
2018-09-30T08:44:02.112Z,3.47
2018-09-30T08:46:31.738Z,3.13
2018-09-30T08:49:01.414Z,3.37
2018-09-30T08:51:31.142Z,3.07
2018-09-30T08:54:00.887Z,2.90
2018-09-30T08:56:30.557Z,3.43
2018-09-30T08:59:00.216Z,4.03
2018-09-30T09:01:29.965Z,4.30
2018-09-30T09:03:59.622Z,4.30
2018-09-30T09:06:29.328Z,3.53
2018-09-30T09:08:58.965Z,4.73
2018-09-30T09:11:28.644Z,4.33
2018-09-30T09:13:58.280Z,3.13
2018-09-30T09:16:28.049Z,4.50
2018-09-30T09:18:57.676Z,11.20
2018-09-30T09:21:27.320Z,6.03
2018-09-30T09:23:57.028Z,4.27
2018-09-30T09:26:26.712Z,5.83
2018-09-30T09:28:56.547Z,3.10
2018-09-30T09:31:26.194Z,3.33
2018-09-30T09:33:55.902Z,4.30
2018-09-30T09:36:25.627Z,5.33
2018-09-30T09:38:55.297Z,4.20
2018-09-30T09:41:25.046Z,4.20
2018-09-30T09:43:54.687Z,3.70
2018-09-30T09:46:24.351Z,4.83
2018-09-30T09:48:53.993Z,2.90
2018-09-30T09:51:23.670Z,3.10
2018-09-30T09:53:53.353Z,7.50
2018-09-30T09:56:23.019Z,2.43
2018-09-30T09:58:52.905Z,3.57
2018-09-30T10:01:22.570Z,3.50
2018-09-30T10:03:52.405Z,2.17
2018-09-30T10:06:22.134Z,5.40
2018-09-30T10:08:51.879Z,4.00
2018-09-30T10:11:21.600Z,3.73
2018-09-30T10:13:51.358Z,3.30
2018-09-30T10:16:21.079Z,6.10
2018-09-30T10:18:50.695Z,5.33
2018-09-30T10:21:20.362Z,5.53
2018-09-30T10:23:49.992Z,3.37
2018-09-30T10:26:19.663Z,14.13
2018-09-30T10:28:49.371Z,10.87
2018-09-30T10:31:19.092Z,4.67
2018-09-30T10:33:48.984Z,2.33
2018-09-30T10:36:18.761Z,6.90
2018-09-30T10:38:48.483Z,6.60
2018-09-30T10:41:18.111Z,3.40
2018-09-30T10:43:48.020Z,2.20
2018-09-30T10:46:17.716Z,18.50
2018-09-30T10:48:47.363Z,4.03
2018-09-30T10:51:17.087Z,7.70
2018-09-30T10:53:46.753Z,9.70
2018-09-30T10:56:16.433Z,9.73
2018-09-30T10:58:46.132Z,9.87
2018-09-30T11:01:15.809Z,4.00
2018-09-30T11:03:45.466Z,2.33
2018-09-30T11:06:15.188Z,2.47
2018-09-30T11:08:44.907Z,2.20
2018-09-30T11:11:14.706Z,2.80
2018-09-30T11:13:44.395Z,2.57
2018-09-30T11:16:14.084Z,2.17
2018-09-30T11:18:43.749Z,3.37
2018-09-30T11:21:13.388Z,3.90
2018-09-30T11:23:43.052Z,5.07
2018-09-30T11:26:12.806Z,4.00
2018-09-30T11:28:42.600Z,4.73
2018-09-30T11:31:12.424Z,3.20
2018-09-30T11:33:43.052Z,3.30
2018-09-30T11:36:12.700Z,1.93
2018-09-30T11:38:42.380Z,2.40
2018-09-30T11:41:12.108Z,2.13
2018-09-30T11:43:41.772Z,2.13
2018-09-30T11:46:11.484Z,2.30
2018-09-30T11:48:41.150Z,2.00
2018-09-30T11:51:10.851Z,2.60
2018-09-30T11:53:40.524Z,2.23
2018-09-30T11:56:10.164Z,2.40
2018-09-30T11:58:39.858Z,2.53
2018-09-30T12:01:09.533Z,2.27
2018-09-30T12:03:39.197Z,1.83
2018-09-30T12:06:08.918Z,2.70
2018-09-30T12:08:38.551Z,2.30
2018-09-30T12:11:08.312Z,2.37
2018-09-30T12:13:38.037Z,2.70
2018-09-30T12:16:07.916Z,2.00
2018-09-30T12:18:37.612Z,2.67
2018-09-30T12:21:07.271Z,2.30
2018-09-30T12:23:36.991Z,2.07
2018-09-30T12:26:06.720Z,2.73
2018-09-30T12:28:36.565Z,2.30
2018-09-30T12:31:06.290Z,3.20
2018-09-30T12:33:35.956Z,2.30
2018-09-30T12:36:05.694Z,1.83
2018-09-30T12:38:35.503Z,2.83
2018-09-30T12:41:05.191Z,2.40
2018-09-30T12:43:34.839Z,2.83
2018-09-30T12:46:04.530Z,2.20
2018-09-30T12:48:34.133Z,3.23
2018-09-30T12:51:03.760Z,2.20
2018-09-30T12:53:33.431Z,1.80
2018-09-30T12:56:03.347Z,1.80
2018-09-30T12:58:33.171Z,2.90
2018-09-30T13:01:02.840Z,3.00
2018-09-30T13:03:32.506Z,2.07
2018-09-30T13:06:02.314Z,2.57
2018-09-30T13:08:31.986Z,1.90
2018-09-30T13:11:01.668Z,2.00
2018-09-30T13:13:31.615Z,2.03
2018-09-30T13:16:01.284Z,1.83
2018-09-30T13:18:30.922Z,1.87
2018-09-30T13:21:00.937Z,2.00
2018-09-30T13:23:30.601Z,1.97
2018-09-30T13:26:00.224Z,2.17
2018-09-30T13:28:29.919Z,2.20
2018-09-30T13:30:59.551Z,1.60
2018-09-30T13:33:29.238Z,2.50
2018-09-30T13:35:58.863Z,3.07
2018-09-30T13:38:28.541Z,1.87
2018-09-30T13:40:58.353Z,2.43
2018-09-30T13:43:27.937Z,2.27
2018-09-30T13:45:57.659Z,2.30
2018-09-30T13:48:27.355Z,2.20
2018-09-30T13:50:57.007Z,2.23
2018-09-30T13:53:26.616Z,1.90
2018-09-30T13:55:56.267Z,1.53
2018-09-30T13:58:25.994Z,2.70
2018-09-30T14:00:55.647Z,1.90
2018-09-30T14:03:25.283Z,2.83
2018-09-30T14:05:54.975Z,2.30
2018-09-30T14:08:24.655Z,2.47
2018-09-30T14:10:54.311Z,2.30
2018-09-30T14:13:23.971Z,2.00
2018-09-30T14:15:53.764Z,2.10
2018-09-30T14:18:23.418Z,2.27
2018-09-30T14:20:53.082Z,2.03
2018-09-30T14:23:22.751Z,2.40
2018-09-30T14:25:54.175Z,1.90
2018-09-30T14:28:23.800Z,1.60
2018-09-30T14:30:53.440Z,1.97
2018-09-30T14:33:23.151Z,2.10
2018-09-30T14:35:52.880Z,1.80
2018-09-30T14:38:22.618Z,1.80
2018-09-30T14:40:52.301Z,2.10
2018-09-30T14:43:21.992Z,2.10
2018-09-30T14:45:51.648Z,1.70
2018-09-30T14:48:21.491Z,2.20
2018-09-30T14:50:51.173Z,2.10
2018-09-30T14:53:20.844Z,1.37
2018-09-30T14:55:50.487Z,1.73
2018-09-30T14:58:20.266Z,1.73
2018-09-30T15:00:49.912Z,2.60
2018-09-30T15:03:19.604Z,2.37
2018-09-30T15:05:49.274Z,2.10
2018-09-30T15:08:18.935Z,1.83
2018-09-30T15:10:48.675Z,2.07
2018-09-30T15:13:18.316Z,1.80
2018-09-30T15:15:47.936Z,2.03
2018-09-30T15:18:17.576Z,1.70
2018-09-30T15:20:47.187Z,2.03
2018-09-30T15:23:16.834Z,2.10
2018-09-30T15:25:46.533Z,2.67
2018-09-30T15:28:16.356Z,1.93
2018-09-30T15:30:46.080Z,2.10
2018-09-30T15:33:15.723Z,1.93
2018-09-30T15:35:45.388Z,2.30
2018-09-30T15:38:15.093Z,1.90
2018-09-30T15:40:44.824Z,1.97
2018-09-30T15:43:14.510Z,2.73
2018-09-30T15:45:44.199Z,2.33
2018-09-30T15:48:13.816Z,1.97
2018-09-30T15:50:43.495Z,2.03
2018-09-30T15:53:13.221Z,6.57
2018-09-30T15:55:42.924Z,3.30
2018-09-30T15:58:12.638Z,1.90
2018-09-30T16:00:42.313Z,2.73
2018-09-30T16:03:11.952Z,2.30
2018-09-30T16:05:41.654Z,2.37
2018-09-30T16:08:11.568Z,2.33
2018-09-30T16:10:41.328Z,3.20
2018-09-30T16:13:11.114Z,2.77
2018-09-30T16:15:40.775Z,3.63
2018-09-30T16:18:10.424Z,2.50
2018-09-30T16:20:40.117Z,2.60
2018-09-30T16:23:09.743Z,3.13
2018-09-30T16:25:39.414Z,3.47
2018-09-30T16:28:09.103Z,2.73
2018-09-30T16:30:38.755Z,3.63
2018-09-30T16:33:08.548Z,3.17
2018-09-30T16:35:38.455Z,2.50
2018-09-30T16:38:08.341Z,3.10
2018-09-30T16:40:38.040Z,3.37
2018-09-30T16:43:07.799Z,5.47
2018-09-30T16:45:37.481Z,4.60
2018-09-30T16:48:07.146Z,2.60
2018-09-30T16:50:36.874Z,2.63
2018-09-30T16:53:06.505Z,4.17
2018-09-30T16:55:36.180Z,4.43
2018-09-30T16:58:05.884Z,6.60
2018-09-30T17:00:35.568Z,6.10
2018-09-30T17:03:05.253Z,6.80
2018-09-30T17:05:34.937Z,8.27
2018-09-30T17:08:04.765Z,6.43
2018-09-30T17:10:34.433Z,4.83
2018-09-30T17:13:04.181Z,7.03
2018-09-30T17:15:33.936Z,5.10
2018-09-30T17:18:03.593Z,8.30
2018-09-30T17:20:33.277Z,6.87
2018-09-30T17:23:02.941Z,5.57
2018-09-30T17:25:32.596Z,6.23
2018-09-30T17:28:02.283Z,7.43
2018-09-30T17:30:32.178Z,8.57
2018-09-30T17:33:01.936Z,9.00
2018-09-30T17:35:31.615Z,5.10
2018-09-30T17:38:01.532Z,5.47
2018-09-30T17:40:31.179Z,6.67
2018-09-30T17:43:00.892Z,6.27
2018-09-30T17:45:30.581Z,6.17
2018-09-30T17:48:00.220Z,4.90
2018-09-30T17:50:30.012Z,6.87
2018-09-30T17:52:59.721Z,7.03
2018-09-30T17:55:29.518Z,5.63
2018-09-30T17:57:59.296Z,4.83
2018-09-30T18:00:28.947Z,4.10
2018-09-30T18:02:58.613Z,3.83
2018-09-30T18:05:28.276Z,4.00
2018-09-30T18:07:57.977Z,4.83
2018-09-30T18:10:27.624Z,4.90
2018-09-30T18:12:57.296Z,7.77
2018-09-30T18:15:27.118Z,5.60
2018-09-30T18:17:56.742Z,4.33
2018-09-30T18:20:26.437Z,5.07
2018-09-30T18:22:56.154Z,6.10
2018-09-30T18:25:25.863Z,4.60
2018-09-30T18:27:55.530Z,5.00
2018-09-30T18:30:25.205Z,4.57
2018-09-30T18:32:54.865Z,5.70
2018-09-30T18:35:24.880Z,5.03
2018-09-30T18:37:54.691Z,5.37
2018-09-30T18:40:24.383Z,6.30
2018-09-30T18:42:54.372Z,7.03
2018-09-30T18:45:24.066Z,5.97
2018-09-30T18:47:53.784Z,9.50
2018-09-30T18:50:23.519Z,7.43
2018-09-30T18:52:53.521Z,4.90
2018-09-30T18:55:23.214Z,7.80
2018-09-30T18:57:52.919Z,6.50
2018-09-30T19:00:22.694Z,6.23
2018-09-30T19:02:52.612Z,7.57
2018-09-30T19:05:22.355Z,6.63
2018-09-30T19:07:52.352Z,6.10
2018-09-30T19:10:22.000Z,7.00
2018-09-30T19:12:51.676Z,6.20
2018-09-30T19:15:21.368Z,8.20
2018-09-30T19:17:51.067Z,7.33
2018-09-30T19:20:21.404Z,8.87
2018-09-30T19:22:51.702Z,7.63
2018-09-30T19:25:21.330Z,7.43
2018-09-30T19:27:51.072Z,8.43
2018-09-30T19:30:20.782Z,9.77
2018-09-30T19:32:51.291Z,9.43
2018-09-30T19:35:21.095Z,10.03
2018-09-30T19:37:50.772Z,8.80
2018-09-30T19:40:20.460Z,9.63
2018-09-30T19:42:50.150Z,10.80
2018-09-30T19:45:19.908Z,12.90
2018-09-30T19:47:49.660Z,10.63
2018-09-30T19:50:19.347Z,10.60
2018-09-30T19:52:49.627Z,10.40
2018-09-30T19:55:19.339Z,10.23
2018-09-30T19:57:49.105Z,9.47
2018-09-30T20:00:18.815Z,11.53
2018-09-30T20:02:48.472Z,9.80
2018-09-30T20:05:18.224Z,11.07
2018-09-30T20:07:48.112Z,10.07
2018-09-30T20:10:17.841Z,9.77
2018-09-30T20:12:49.101Z,9.00
2018-09-30T20:15:21.838Z,9.30
2018-09-30T20:17:51.518Z,9.70
2018-09-30T20:20:21.300Z,8.20
2018-09-30T20:22:50.991Z,8.33
2018-09-30T20:25:20.895Z,12.07
2018-09-30T20:27:50.582Z,12.37
2018-09-30T20:30:20.400Z,9.63
2018-09-30T20:32:50.073Z,10.40
2018-09-30T20:35:19.729Z,9.90
2018-09-30T20:37:49.427Z,13.30
2018-09-30T20:40:19.163Z,10.97
2018-09-30T20:42:48.896Z,10.03
2018-09-30T20:45:18.636Z,11.10
2018-09-30T20:47:48.311Z,13.20
2018-09-30T20:50:18.001Z,13.43
2018-09-30T20:52:47.916Z,14.43
2018-09-30T20:55:17.602Z,13.80
2018-09-30T20:57:47.336Z,13.80
2018-09-30T21:00:16.959Z,17.20
2018-09-30T21:02:46.845Z,13.20
2018-09-30T21:05:33.214Z,13.20
2018-09-30T21:08:02.912Z,11.93
2018-09-30T21:10:32.663Z,10.90
2018-09-30T21:13:02.304Z,12.40
2018-09-30T21:15:32.234Z,10.80
2018-09-30T21:18:01.961Z,13.17
2018-09-30T21:20:31.640Z,12.40
2018-09-30T21:23:01.367Z,11.57
2018-09-30T21:25:31.022Z,13.30
2018-09-30T21:28:00.694Z,12.90
2018-09-30T21:30:30.487Z,13.17
2018-09-30T21:33:00.117Z,12.63
2018-09-30T21:35:29.764Z,11.70
2018-09-30T21:37:59.454Z,13.93
2018-09-30T21:40:29.171Z,11.47
2018-09-30T21:42:58.844Z,12.90
2018-09-30T21:45:28.660Z,12.20
2018-09-30T21:47:58.267Z,11.70
2018-09-30T21:50:27.932Z,14.40
2018-09-30T21:52:57.644Z,12.00
2018-09-30T21:55:27.306Z,10.90
2018-09-30T21:57:57.020Z,11.20
2018-09-30T22:00:31.976Z,13.13
2018-09-30T22:03:01.645Z,14.20
2018-09-30T22:05:31.405Z,20.13
2018-09-30T22:08:01.301Z,16.17
2018-09-30T22:10:31.146Z,13.20
2018-09-30T22:13:00.849Z,13.20
2018-09-30T22:15:30.605Z,12.67
2018-09-30T22:18:00.230Z,11.67
2018-09-30T22:20:29.925Z,10.67
2018-09-30T22:23:00.045Z,13.50
2018-09-30T22:25:29.752Z,14.43
2018-09-30T22:27:59.669Z,13.80
2018-09-30T22:30:29.381Z,14.53
2018-09-30T22:32:59.139Z,14.00
2018-09-30T22:35:28.784Z,12.20
2018-09-30T22:37:58.459Z,12.23
2018-09-30T22:40:28.538Z,12.57
2018-09-30T22:42:58.205Z,11.77
2018-09-30T22:45:28.188Z,12.10
2018-09-30T22:47:57.831Z,13.07
2018-09-30T22:50:27.571Z,13.70
2018-09-30T22:52:57.536Z,11.97
2018-09-30T22:55:27.280Z,12.90
2018-09-30T22:57:57.072Z,13.50
2018-09-30T23:00:26.797Z,12.40
2018-09-30T23:02:56.538Z,12.10
2018-09-30T23:05:26.213Z,13.03
2018-09-30T23:07:56.047Z,13.07
2018-09-30T23:10:25.707Z,13.53
2018-09-30T23:12:55.386Z,11.20
2018-09-30T23:15:25.036Z,13.07
2018-09-30T23:17:54.836Z,12.10
2018-09-30T23:20:24.489Z,11.10
2018-09-30T23:22:54.177Z,11.97
2018-09-30T23:25:23.796Z,12.17
2018-09-30T23:27:53.453Z,12.43
2018-09-30T23:30:23.123Z,12.90
2018-09-30T23:32:52.760Z,13.07
2018-09-30T23:35:22.567Z,11.40
2018-09-30T23:37:52.340Z,11.70
2018-09-30T23:40:22.047Z,11.03
2018-09-30T23:42:51.674Z,11.00
2018-09-30T23:45:21.382Z,11.10
2018-09-30T23:47:51.160Z,12.23
2018-09-30T23:50:21.041Z,10.83
2018-09-30T23:52:51.062Z,12.53
2018-09-30T23:55:20.868Z,11.60
2018-09-30T23:57:50.549Z,13.50
